sensor_id;sensor_type;location;lat;lon;timestamp;P1;durP1;ratioP1;P2;durP2;ratioP2
70951;SDS011;69214;55.880;37.542;2023-10-31T00:01:53;4.57;;;1.65;;
70951;SDS011;69214;55.880;37.542;2023-10-31T00:04:21;3.85;;;1.38;;
70951;SDS011;69214;55.880;37.542;2023-10-31T00:06:47;4.30;;;1.50;;
70951;SDS011;69214;55.880;37.542;2023-10-31T00:09:13;5.75;;;1.45;;
70951;SDS011;69214;55.880;37.542;2023-10-31T00:11:40;4.27;;;1.50;;
70951;SDS011;69214;55.880;37.542;2023-10-31T00:14:07;4.03;;;1.00;;
70951;SDS011;69214;55.880;37.542;2023-10-31T00:16:34;4.93;;;1.45;;
70951;SDS011;69214;55.880;37.542;2023-10-31T00:19:00;4.97;;;1.40;;
70951;SDS011;69214;55.880;37.542;2023-10-31T00:21:26;4.53;;;1.20;;
70951;SDS011;69214;55.880;37.542;2023-10-31T00:23:52;5.50;;;1.00;;
70951;SDS011;69214;55.880;37.542;2023-10-31T00:26:18;4.43;;;1.38;;
70951;SDS011;69214;55.880;37.542;2023-10-31T00:28:50;3.63;;;1.00;;
70951;SDS011;69214;55.880;37.542;2023-10-31T00:31:16;2.67;;;0.85;;
70951;SDS011;69214;55.880;37.542;2023-10-31T00:33:42;3.10;;;0.95;;
70951;SDS011;69214;55.880;37.542;2023-10-31T00:36:08;4.53;;;1.00;;
70951;SDS011;69214;55.880;37.542;2023-10-31T00:38:35;3.25;;;1.10;;
70951;SDS011;69214;55.880;37.542;2023-10-31T00:41:00;5.22;;;1.20;;
70951;SDS011;69214;55.880;37.542;2023-10-31T00:43:26;5.38;;;1.45;;
70951;SDS011;69214;55.880;37.542;2023-10-31T00:45:52;3.70;;;1.30;;
70951;SDS011;69214;55.880;37.542;2023-10-31T00:48:19;3.75;;;1.08;;
70951;SDS011;69214;55.880;37.542;2023-10-31T00:50:45;3.95;;;1.17;;
70951;SDS011;69214;55.880;37.542;2023-10-31T00:53:11;4.82;;;1.30;;
70951;SDS011;69214;55.880;37.542;2023-10-31T00:55:40;3.23;;;1.30;;
70951;SDS011;69214;55.880;37.542;2023-10-31T00:58:07;4.50;;;1.15;;
70951;SDS011;69214;55.880;37.542;2023-10-31T01:00:33;4.30;;;1.13;;
70951;SDS011;69214;55.880;37.542;2023-10-31T01:03:00;3.42;;;1.10;;
70951;SDS011;69214;55.880;37.542;2023-10-31T01:05:26;3.00;;;0.93;;
70951;SDS011;69214;55.880;37.542;2023-10-31T01:07:55;3.73;;;1.10;;
70951;SDS011;69214;55.880;37.542;2023-10-31T01:10:21;6.97;;;1.10;;
70951;SDS011;69214;55.880;37.542;2023-10-31T01:12:48;6.00;;;1.15;;
70951;SDS011;69214;55.880;37.542;2023-10-31T01:15:14;4.05;;;0.90;;
70951;SDS011;69214;55.880;37.542;2023-10-31T01:17:40;3.33;;;1.10;;
70951;SDS011;69214;55.880;37.542;2023-10-31T01:20:06;4.53;;;1.23;;
70951;SDS011;69214;55.880;37.542;2023-10-31T01:22:33;2.95;;;0.93;;
70951;SDS011;69214;55.880;37.542;2023-10-31T01:25:00;3.78;;;1.13;;
70951;SDS011;69214;55.880;37.542;2023-10-31T01:27:25;3.10;;;1.00;;
70951;SDS011;69214;55.880;37.542;2023-10-31T01:29:51;2.77;;;1.07;;
70951;SDS011;69214;55.880;37.542;2023-10-31T01:32:17;4.88;;;1.40;;
70951;SDS011;69214;55.880;37.542;2023-10-31T01:34:43;4.35;;;1.33;;
70951;SDS011;69214;55.880;37.542;2023-10-31T01:37:09;3.65;;;1.27;;
70951;SDS011;69214;55.880;37.542;2023-10-31T01:39:36;4.73;;;1.27;;
70951;SDS011;69214;55.880;37.542;2023-10-31T01:42:05;4.25;;;1.38;;
70951;SDS011;69214;55.880;37.542;2023-10-31T01:44:31;8.38;;;1.92;;
70951;SDS011;69214;55.880;37.542;2023-10-31T01:46:57;5.67;;;1.77;;
70951;SDS011;69214;55.880;37.542;2023-10-31T01:49:23;5.18;;;1.25;;
70951;SDS011;69214;55.880;37.542;2023-10-31T01:51:50;5.03;;;1.60;;
70951;SDS011;69214;55.880;37.542;2023-10-31T01:54:16;6.90;;;1.77;;
70951;SDS011;69214;55.880;37.542;2023-10-31T01:56:42;7.03;;;1.52;;
70951;SDS011;69214;55.880;37.542;2023-10-31T01:59:09;4.37;;;1.47;;
70951;SDS011;69214;55.880;37.542;2023-10-31T02:01:38;5.35;;;1.17;;
70951;SDS011;69214;55.880;37.542;2023-10-31T02:04:05;6.43;;;1.45;;
70951;SDS011;69214;55.880;37.542;2023-10-31T02:06:31;4.00;;;1.20;;
70951;SDS011;69214;55.880;37.542;2023-10-31T02:08:57;4.93;;;1.47;;
70951;SDS011;69214;55.880;37.542;2023-10-31T02:11:23;4.00;;;1.30;;
70951;SDS011;69214;55.880;37.542;2023-10-31T02:13:49;5.97;;;1.55;;
70951;SDS011;69214;55.880;37.542;2023-10-31T02:16:15;6.32;;;1.15;;
70951;SDS011;69214;55.880;37.542;2023-10-31T02:18:41;4.83;;;1.10;;
70951;SDS011;69214;55.880;37.542;2023-10-31T02:21:07;2.92;;;1.20;;
70951;SDS011;69214;55.880;37.542;2023-10-31T02:23:34;5.45;;;1.10;;
70951;SDS011;69214;55.880;37.542;2023-10-31T02:26:00;3.35;;;1.10;;
70951;SDS011;69214;55.880;37.542;2023-10-31T02:28:26;3.25;;;1.20;;
70951;SDS011;69214;55.880;37.542;2023-10-31T02:30:54;3.23;;;1.10;;
70951;SDS011;69214;55.880;37.542;2023-10-31T02:33:24;2.58;;;1.00;;
70951;SDS011;69214;55.880;37.542;2023-10-31T02:35:50;3.17;;;0.95;;
70951;SDS011;69214;55.880;37.542;2023-10-31T02:38:16;3.22;;;1.02;;
70951;SDS011;69214;55.880;37.542;2023-10-31T02:40:42;3.25;;;1.00;;
70951;SDS011;69214;55.880;37.542;2023-10-31T02:43:08;3.23;;;0.90;;
70951;SDS011;69214;55.880;37.542;2023-10-31T02:45:34;7.82;;;1.02;;
70951;SDS011;69214;55.880;37.542;2023-10-31T02:48:00;2.80;;;1.00;;
70951;SDS011;69214;55.880;37.542;2023-10-31T02:50:27;2.17;;;0.70;;
70951;SDS011;69214;55.880;37.542;2023-10-31T02:52:54;4.07;;;1.00;;
70951;SDS011;69214;55.880;37.542;2023-10-31T02:55:20;4.90;;;1.08;;
70951;SDS011;69214;55.880;37.542;2023-10-31T02:57:46;2.72;;;0.93;;
70951;SDS011;69214;55.880;37.542;2023-10-31T03:00:12;3.30;;;1.02;;
70951;SDS011;69214;55.880;37.542;2023-10-31T03:02:39;5.80;;;1.30;;
70951;SDS011;69214;55.880;37.542;2023-10-31T03:05:04;3.58;;;0.98;;
70951;SDS011;69214;55.880;37.542;2023-10-31T03:07:31;4.70;;;1.10;;
70951;SDS011;69214;55.880;37.542;2023-10-31T03:09:58;5.25;;;1.30;;
70951;SDS011;69214;55.880;37.542;2023-10-31T03:12:24;6.97;;;1.33;;
70951;SDS011;69214;55.880;37.542;2023-10-31T03:14:50;4.00;;;1.30;;
70951;SDS011;69214;55.880;37.542;2023-10-31T03:17:17;4.75;;;1.40;;
70951;SDS011;69214;55.880;37.542;2023-10-31T03:19:44;4.13;;;1.10;;
70951;SDS011;69214;55.880;37.542;2023-10-31T03:22:10;4.65;;;1.50;;
70951;SDS011;69214;55.880;37.542;2023-10-31T03:24:37;3.33;;;1.30;;
70951;SDS011;69214;55.880;37.542;2023-10-31T03:27:02;3.33;;;0.95;;
70951;SDS011;69214;55.880;37.542;2023-10-31T03:29:30;3.65;;;1.30;;
70951;SDS011;69214;55.880;37.542;2023-10-31T03:31:56;3.55;;;1.15;;
70951;SDS011;69214;55.880;37.542;2023-10-31T03:34:23;3.28;;;1.10;;
70951;SDS011;69214;55.880;37.542;2023-10-31T03:36:48;3.30;;;1.20;;
70951;SDS011;69214;55.880;37.542;2023-10-31T03:39:14;2.85;;;1.13;;
70951;SDS011;69214;55.880;37.542;2023-10-31T03:41:40;4.55;;;1.02;;
70951;SDS011;69214;55.880;37.542;2023-10-31T03:44:08;4.93;;;1.23;;
70951;SDS011;69214;55.880;37.542;2023-10-31T03:46:34;4.57;;;1.20;;
70951;SDS011;69214;55.880;37.542;2023-10-31T03:49:00;4.78;;;1.42;;
70951;SDS011;69214;55.880;37.542;2023-10-31T03:51:26;3.78;;;1.30;;
70951;SDS011;69214;55.880;37.542;2023-10-31T03:53:52;3.43;;;1.30;;
70951;SDS011;69214;55.880;37.542;2023-10-31T03:56:18;3.65;;;1.30;;
70951;SDS011;69214;55.880;37.542;2023-10-31T03:58:43;3.10;;;1.23;;
70951;SDS011;69214;55.880;37.542;2023-10-31T04:01:09;4.53;;;1.40;;
70951;SDS011;69214;55.880;37.542;2023-10-31T04:03:35;4.83;;;1.20;;
70951;SDS011;69214;55.880;37.542;2023-10-31T04:06:01;4.40;;;1.50;;
70951;SDS011;69214;55.880;37.542;2023-10-31T04:08:28;4.10;;;1.50;;
70951;SDS011;69214;55.880;37.542;2023-10-31T04:10:54;5.00;;;1.58;;
70951;SDS011;69214;55.880;37.542;2023-10-31T04:13:20;4.65;;;1.55;;
70951;SDS011;69214;55.880;37.542;2023-10-31T04:15:46;5.63;;;1.37;;
70951;SDS011;69214;55.880;37.542;2023-10-31T04:18:12;5.35;;;1.95;;
70951;SDS011;69214;55.880;37.542;2023-10-31T04:20:38;5.15;;;1.50;;
70951;SDS011;69214;55.880;37.542;2023-10-31T04:23:04;5.33;;;1.63;;
70951;SDS011;69214;55.880;37.542;2023-10-31T04:25:30;4.53;;;1.92;;
70951;SDS011;69214;55.880;37.542;2023-10-31T04:27:56;4.57;;;1.80;;
70951;SDS011;69214;55.880;37.542;2023-10-31T04:30:23;4.95;;;1.95;;
70951;SDS011;69214;55.880;37.542;2023-10-31T04:32:49;4.23;;;1.50;;
70951;SDS011;69214;55.880;37.542;2023-10-31T04:35:15;4.70;;;1.95;;
70951;SDS011;69214;55.880;37.542;2023-10-31T04:37:41;5.43;;;2.00;;
70951;SDS011;69214;55.880;37.542;2023-10-31T04:40:06;5.13;;;1.80;;
70951;SDS011;69214;55.880;37.542;2023-10-31T04:42:33;4.82;;;2.00;;
70951;SDS011;69214;55.880;37.542;2023-10-31T04:44:59;4.53;;;1.90;;
70951;SDS011;69214;55.880;37.542;2023-10-31T04:47:25;4.63;;;1.70;;
70951;SDS011;69214;55.880;37.542;2023-10-31T04:49:51;5.27;;;2.07;;
70951;SDS011;69214;55.880;37.542;2023-10-31T04:52:17;8.10;;;2.00;;
70951;SDS011;69214;55.880;37.542;2023-10-31T04:54:43;5.40;;;1.90;;
70951;SDS011;69214;55.880;37.542;2023-10-31T04:57:09;4.53;;;1.70;;
70951;SDS011;69214;55.880;37.542;2023-10-31T04:59:35;5.57;;;1.97;;
70951;SDS011;69214;55.880;37.542;2023-10-31T05:02:03;5.20;;;2.05;;
70951;SDS011;69214;55.880;37.542;2023-10-31T05:04:29;5.05;;;1.80;;
70951;SDS011;69214;55.880;37.542;2023-10-31T05:06:55;7.47;;;2.20;;
70951;SDS011;69214;55.880;37.542;2023-10-31T05:09:21;6.25;;;2.00;;
70951;SDS011;69214;55.880;37.542;2023-10-31T05:11:48;5.45;;;2.30;;
70951;SDS011;69214;55.880;37.542;2023-10-31T05:14:14;5.63;;;1.75;;
70951;SDS011;69214;55.880;37.542;2023-10-31T05:16:41;7.18;;;2.47;;
70951;SDS011;69214;55.880;37.542;2023-10-31T05:19:08;7.13;;;2.40;;
70951;SDS011;69214;55.880;37.542;2023-10-31T05:21:34;4.85;;;2.30;;
70951;SDS011;69214;55.880;37.542;2023-10-31T05:24:00;8.00;;;2.50;;
70951;SDS011;69214;55.880;37.542;2023-10-31T05:26:26;7.00;;;2.23;;
70951;SDS011;69214;55.880;37.542;2023-10-31T05:28:55;5.88;;;2.30;;
70951;SDS011;69214;55.880;37.542;2023-10-31T05:31:23;8.32;;;2.88;;
70951;SDS011;69214;55.880;37.542;2023-10-31T05:33:50;7.28;;;2.70;;
70951;SDS011;69214;55.880;37.542;2023-10-31T05:36:21;6.28;;;2.40;;
70951;SDS011;69214;55.880;37.542;2023-10-31T05:38:49;6.90;;;2.43;;
70951;SDS011;69214;55.880;37.542;2023-10-31T05:41:15;7.18;;;2.42;;
70951;SDS011;69214;55.880;37.542;2023-10-31T05:43:41;6.63;;;2.92;;
70951;SDS011;69214;55.880;37.542;2023-10-31T05:46:08;7.75;;;2.58;;
70951;SDS011;69214;55.880;37.542;2023-10-31T05:48:38;8.32;;;2.80;;
70951;SDS011;69214;55.880;37.542;2023-10-31T05:51:15;5.70;;;2.70;;
70951;SDS011;69214;55.880;37.542;2023-10-31T05:53:43;6.53;;;3.00;;
70951;SDS011;69214;55.880;37.542;2023-10-31T05:56:12;8.30;;;3.03;;
70951;SDS011;69214;55.880;37.542;2023-10-31T05:58:42;7.10;;;2.80;;
70951;SDS011;69214;55.880;37.542;2023-10-31T06:01:09;6.15;;;2.58;;
70951;SDS011;69214;55.880;37.542;2023-10-31T06:03:36;6.47;;;2.70;;
70951;SDS011;69214;55.880;37.542;2023-10-31T06:06:02;8.57;;;2.40;;
70951;SDS011;69214;55.880;37.542;2023-10-31T06:08:28;5.72;;;2.30;;
70951;SDS011;69214;55.880;37.542;2023-10-31T06:10:55;5.90;;;2.30;;
70951;SDS011;69214;55.880;37.542;2023-10-31T06:13:23;5.75;;;2.25;;
70951;SDS011;69214;55.880;37.542;2023-10-31T06:15:51;5.80;;;2.07;;
70951;SDS011;69214;55.880;37.542;2023-10-31T06:18:17;5.75;;;2.00;;
70951;SDS011;69214;55.880;37.542;2023-10-31T06:20:43;5.18;;;2.10;;
70951;SDS011;69214;55.880;37.542;2023-10-31T06:23:09;5.28;;;2.25;;
70951;SDS011;69214;55.880;37.542;2023-10-31T06:25:35;6.93;;;1.90;;
70951;SDS011;69214;55.880;37.542;2023-10-31T06:28:01;5.18;;;1.75;;
70951;SDS011;69214;55.880;37.542;2023-10-31T06:30:26;7.53;;;2.30;;
70951;SDS011;69214;55.880;37.542;2023-10-31T06:32:53;5.60;;;2.27;;
70951;SDS011;69214;55.880;37.542;2023-10-31T06:35:19;8.23;;;2.22;;
70951;SDS011;69214;55.880;37.542;2023-10-31T06:37:45;6.28;;;2.28;;
70951;SDS011;69214;55.880;37.542;2023-10-31T06:40:11;5.68;;;2.10;;
70951;SDS011;69214;55.880;37.542;2023-10-31T06:42:37;7.27;;;2.33;;
70951;SDS011;69214;55.880;37.542;2023-10-31T06:45:03;5.55;;;2.20;;
70951;SDS011;69214;55.880;37.542;2023-10-31T06:47:33;6.25;;;2.50;;
70951;SDS011;69214;55.880;37.542;2023-10-31T06:50:00;6.15;;;2.25;;
70951;SDS011;69214;55.880;37.542;2023-10-31T06:52:26;6.05;;;2.20;;
70951;SDS011;69214;55.880;37.542;2023-10-31T06:54:52;5.70;;;2.20;;
70951;SDS011;69214;55.880;37.542;2023-10-31T06:57:18;5.28;;;2.10;;
70951;SDS011;69214;55.880;37.542;2023-10-31T06:59:44;6.15;;;2.40;;
70951;SDS011;69214;55.880;37.542;2023-10-31T07:02:09;5.30;;;2.10;;
70951;SDS011;69214;55.880;37.542;2023-10-31T07:04:35;6.38;;;2.60;;
70951;SDS011;69214;55.880;37.542;2023-10-31T07:07:01;5.05;;;2.10;;
70951;SDS011;69214;55.880;37.542;2023-10-31T07:09:27;6.37;;;2.20;;
70951;SDS011;69214;55.880;37.542;2023-10-31T07:11:53;7.03;;;2.33;;
70951;SDS011;69214;55.880;37.542;2023-10-31T07:14:19;5.70;;;2.33;;
70951;SDS011;69214;55.880;37.542;2023-10-31T07:16:45;6.53;;;2.70;;
70951;SDS011;69214;55.880;37.542;2023-10-31T07:19:11;7.97;;;2.83;;
70951;SDS011;69214;55.880;37.542;2023-10-31T07:21:37;8.80;;;2.83;;
70951;SDS011;69214;55.880;37.542;2023-10-31T07:24:03;7.20;;;2.50;;
70951;SDS011;69214;55.880;37.542;2023-10-31T07:26:29;10.07;;;2.78;;
70951;SDS011;69214;55.880;37.542;2023-10-31T07:28:55;11.68;;;3.10;;
70951;SDS011;69214;55.880;37.542;2023-10-31T07:31:21;6.47;;;2.78;;
70951;SDS011;69214;55.880;37.542;2023-10-31T07:33:47;8.43;;;3.08;;
70951;SDS011;69214;55.880;37.542;2023-10-31T07:36:13;7.23;;;2.60;;
70951;SDS011;69214;55.880;37.542;2023-10-31T07:38:39;6.55;;;2.90;;
70951;SDS011;69214;55.880;37.542;2023-10-31T07:41:05;5.60;;;2.72;;
70951;SDS011;69214;55.880;37.542;2023-10-31T07:43:31;7.30;;;2.88;;
70951;SDS011;69214;55.880;37.542;2023-10-31T07:45:57;9.93;;;3.17;;
70951;SDS011;69214;55.880;37.542;2023-10-31T07:48:23;8.05;;;3.30;;
70951;SDS011;69214;55.880;37.542;2023-10-31T07:50:49;10.98;;;3.50;;
70951;SDS011;69214;55.880;37.542;2023-10-31T07:53:15;6.50;;;3.03;;
70951;SDS011;69214;55.880;37.542;2023-10-31T07:55:41;7.97;;;3.00;;
70951;SDS011;69214;55.880;37.542;2023-10-31T07:58:07;7.20;;;2.92;;
70951;SDS011;69214;55.880;37.542;2023-10-31T08:00:35;11.98;;;3.35;;
70951;SDS011;69214;55.880;37.542;2023-10-31T08:03:02;7.10;;;2.90;;
70951;SDS011;69214;55.880;37.542;2023-10-31T08:05:28;7.13;;;2.88;;
70951;SDS011;69214;55.880;37.542;2023-10-31T08:07:53;8.05;;;2.90;;
70951;SDS011;69214;55.880;37.542;2023-10-31T08:10:19;5.75;;;2.80;;
70951;SDS011;69214;55.880;37.542;2023-10-31T08:12:45;7.43;;;2.70;;
70951;SDS011;69214;55.880;37.542;2023-10-31T08:15:11;12.32;;;3.45;;
70951;SDS011;69214;55.880;37.542;2023-10-31T08:17:37;6.60;;;2.80;;
70951;SDS011;69214;55.880;37.542;2023-10-31T08:20:03;10.23;;;3.07;;
70951;SDS011;69214;55.880;37.542;2023-10-31T08:22:30;6.93;;;2.80;;
70951;SDS011;69214;55.880;37.542;2023-10-31T08:24:56;6.35;;;2.70;;
70951;SDS011;69214;55.880;37.542;2023-10-31T08:27:21;9.00;;;2.43;;
70951;SDS011;69214;55.880;37.542;2023-10-31T08:29:48;6.77;;;2.67;;
70951;SDS011;69214;55.880;37.542;2023-10-31T08:32:14;6.05;;;2.30;;
70951;SDS011;69214;55.880;37.542;2023-10-31T08:34:41;7.18;;;2.70;;
70951;SDS011;69214;55.880;37.542;2023-10-31T08:37:07;6.30;;;2.33;;
70951;SDS011;69214;55.880;37.542;2023-10-31T08:39:33;6.20;;;2.20;;
70951;SDS011;69214;55.880;37.542;2023-10-31T08:41:59;5.95;;;2.03;;
70951;SDS011;69214;55.880;37.542;2023-10-31T08:44:25;5.05;;;1.90;;
70951;SDS011;69214;55.880;37.542;2023-10-31T08:46:51;5.00;;;1.93;;
70951;SDS011;69214;55.880;37.542;2023-10-31T08:49:17;6.13;;;1.98;;
70951;SDS011;69214;55.880;37.542;2023-10-31T08:51:43;4.25;;;1.40;;
70951;SDS011;69214;55.880;37.542;2023-10-31T08:54:10;5.00;;;1.73;;
70951;SDS011;69214;55.880;37.542;2023-10-31T08:56:36;3.93;;;1.40;;
70951;SDS011;69214;55.880;37.542;2023-10-31T08:59:02;5.90;;;1.60;;
70951;SDS011;69214;55.880;37.542;2023-10-31T09:01:27;4.05;;;1.50;;
70951;SDS011;69214;55.880;37.542;2023-10-31T09:03:56;4.60;;;1.50;;
70951;SDS011;69214;55.880;37.542;2023-10-31T09:06:26;4.65;;;1.50;;
70951;SDS011;69214;55.880;37.542;2023-10-31T09:08:51;4.17;;;1.60;;
70951;SDS011;69214;55.880;37.542;2023-10-31T09:11:17;7.55;;;1.60;;
70951;SDS011;69214;55.880;37.542;2023-10-31T09:13:43;5.53;;;1.70;;
70951;SDS011;69214;55.880;37.542;2023-10-31T09:16:09;5.22;;;1.52;;
70951;SDS011;69214;55.880;37.542;2023-10-31T09:18:35;3.72;;;1.30;;
70951;SDS011;69214;55.880;37.542;2023-10-31T09:21:01;5.28;;;1.95;;
70951;SDS011;69214;55.880;37.542;2023-10-31T09:23:27;4.93;;;1.70;;
70951;SDS011;69214;55.880;37.542;2023-10-31T09:25:55;6.25;;;1.95;;
70951;SDS011;69214;55.880;37.542;2023-10-31T09:28:20;4.05;;;1.42;;
70951;SDS011;69214;55.880;37.542;2023-10-31T09:30:46;4.53;;;1.40;;
70951;SDS011;69214;55.880;37.542;2023-10-31T09:33:12;4.57;;;1.58;;
70951;SDS011;69214;55.880;37.542;2023-10-31T09:35:38;3.47;;;1.05;;
70951;SDS011;69214;55.880;37.542;2023-10-31T09:38:04;4.07;;;1.50;;
70951;SDS011;69214;55.880;37.542;2023-10-31T09:40:29;5.55;;;1.67;;
70951;SDS011;69214;55.880;37.542;2023-10-31T09:42:55;3.92;;;1.40;;
70951;SDS011;69214;55.880;37.542;2023-10-31T09:45:22;3.55;;;1.60;;
70951;SDS011;69214;55.880;37.542;2023-10-31T09:47:47;4.77;;;1.70;;
70951;SDS011;69214;55.880;37.542;2023-10-31T09:50:13;5.88;;;1.67;;
70951;SDS011;69214;55.880;37.542;2023-10-31T09:52:39;4.78;;;1.50;;
70951;SDS011;69214;55.880;37.542;2023-10-31T09:55:06;4.63;;;1.50;;
70951;SDS011;69214;55.880;37.542;2023-10-31T09:57:33;3.92;;;1.50;;
70951;SDS011;69214;55.880;37.542;2023-10-31T09:59:59;3.60;;;1.40;;
70951;SDS011;69214;55.880;37.542;2023-10-31T10:02:25;3.95;;;1.23;;
70951;SDS011;69214;55.880;37.542;2023-10-31T10:04:51;5.17;;;1.50;;
70951;SDS011;69214;55.880;37.542;2023-10-31T10:07:17;4.68;;;1.33;;
70951;SDS011;69214;55.880;37.542;2023-10-31T10:09:45;2.80;;;1.02;;
70951;SDS011;69214;55.880;37.542;2023-10-31T10:12:12;3.05;;;1.13;;
70951;SDS011;69214;55.880;37.542;2023-10-31T10:14:39;3.27;;;1.20;;
70951;SDS011;69214;55.880;37.542;2023-10-31T10:17:20;3.92;;;1.20;;
70951;SDS011;69214;55.880;37.542;2023-10-31T10:19:47;4.13;;;1.30;;
70951;SDS011;69214;55.880;37.542;2023-10-31T10:22:13;3.28;;;1.40;;
70951;SDS011;69214;55.880;37.542;2023-10-31T10:24:40;3.70;;;1.40;;
70951;SDS011;69214;55.880;37.542;2023-10-31T10:27:07;4.23;;;1.47;;
70951;SDS011;69214;55.880;37.542;2023-10-31T10:29:37;4.82;;;1.65;;
70951;SDS011;69214;55.880;37.542;2023-10-31T10:32:07;3.45;;;1.42;;
70951;SDS011;69214;55.880;37.542;2023-10-31T10:34:35;4.30;;;1.30;;
70951;SDS011;69214;55.880;37.542;2023-10-31T10:37:01;4.47;;;1.60;;
70951;SDS011;69214;55.880;37.542;2023-10-31T10:39:31;5.07;;;1.65;;
70951;SDS011;69214;55.880;37.542;2023-10-31T10:41:59;4.07;;;1.73;;
70951;SDS011;69214;55.880;37.542;2023-10-31T10:44:35;4.40;;;1.60;;
70951;SDS011;69214;55.880;37.542;2023-10-31T10:47:06;4.90;;;1.58;;
70951;SDS011;69214;55.880;37.542;2023-10-31T10:49:43;3.90;;;1.50;;
70951;SDS011;69214;55.880;37.542;2023-10-31T10:52:23;5.05;;;1.48;;
70951;SDS011;69214;55.880;37.542;2023-10-31T10:55:08;5.03;;;1.80;;
70951;SDS011;69214;55.880;37.542;2023-10-31T11:00:30;5.30;;;1.60;;
70951;SDS011;69214;55.880;37.542;2023-10-31T11:02:56;5.17;;;2.00;;
70951;SDS011;69214;55.880;37.542;2023-10-31T11:05:23;4.25;;;1.80;;
70951;SDS011;69214;55.880;37.542;2023-10-31T11:07:50;4.93;;;1.98;;
70951;SDS011;69214;55.880;37.542;2023-10-31T11:10:17;5.82;;;2.15;;
70951;SDS011;69214;55.880;37.542;2023-10-31T11:12:44;4.88;;;1.85;;
70951;SDS011;69214;55.880;37.542;2023-10-31T11:15:11;5.17;;;1.70;;
70951;SDS011;69214;55.880;37.542;2023-10-31T11:17:43;4.68;;;1.52;;
70951;SDS011;69214;55.880;37.542;2023-10-31T11:20:11;5.38;;;1.50;;
70951;SDS011;69214;55.880;37.542;2023-10-31T11:22:45;5.95;;;1.58;;
70951;SDS011;69214;55.880;37.542;2023-10-31T11:25:15;4.40;;;1.60;;
70951;SDS011;69214;55.880;37.542;2023-10-31T11:27:46;6.73;;;1.77;;
70951;SDS011;69214;55.880;37.542;2023-10-31T11:33:32;4.55;;;1.83;;
70951;SDS011;69214;55.880;37.542;2023-10-31T11:35:40;4.93;;;2.13;;
70951;SDS011;69214;55.880;37.542;2023-10-31T11:38:10;5.13;;;2.10;;
70951;SDS011;69214;55.880;37.542;2023-10-31T11:40:38;5.23;;;2.00;;
70951;SDS011;69214;55.880;37.542;2023-10-31T11:46:06;5.75;;;2.17;;
70951;SDS011;69214;55.880;37.542;2023-10-31T11:48:45;5.05;;;2.03;;
70951;SDS011;69214;55.880;37.542;2023-10-31T11:51:13;7.07;;;2.47;;
70951;SDS011;69214;55.880;37.542;2023-10-31T11:53:39;5.10;;;2.00;;
70951;SDS011;69214;55.880;37.542;2023-10-31T11:56:05;6.05;;;2.20;;
70951;SDS011;69214;55.880;37.542;2023-10-31T11:58:33;8.93;;;2.53;;
70951;SDS011;69214;55.880;37.542;2023-10-31T12:01:05;5.75;;;2.50;;
70951;SDS011;69214;55.880;37.542;2023-10-31T12:03:39;5.63;;;1.90;;
70951;SDS011;69214;55.880;37.542;2023-10-31T12:06:06;5.72;;;2.30;;
70951;SDS011;69214;55.880;37.542;2023-10-31T12:08:40;7.53;;;2.35;;
70951;SDS011;69214;55.880;37.542;2023-10-31T12:11:14;5.40;;;2.20;;
70951;SDS011;69214;55.880;37.542;2023-10-31T12:16:29;7.60;;;2.30;;
70951;SDS011;69214;55.880;37.542;2023-10-31T12:19:00;4.40;;;1.60;;
70951;SDS011;69214;55.880;37.542;2023-10-31T12:21:40;4.65;;;1.90;;
70951;SDS011;69214;55.880;37.542;2023-10-31T12:24:09;6.45;;;2.40;;
70951;SDS011;69214;55.880;37.542;2023-10-31T12:26:38;5.63;;;2.17;;
70951;SDS011;69214;55.880;37.542;2023-10-31T12:29:09;5.17;;;2.00;;
70951;SDS011;69214;55.880;37.542;2023-10-31T12:31:38;5.60;;;2.10;;
70951;SDS011;69214;55.880;37.542;2023-10-31T12:34:07;7.57;;;2.30;;
70951;SDS011;69214;55.880;37.542;2023-10-31T12:36:34;5.97;;;2.03;;
70951;SDS011;69214;55.880;37.542;2023-10-31T12:39:02;5.63;;;2.20;;
70951;SDS011;69214;55.880;37.542;2023-10-31T12:41:29;5.60;;;2.50;;
70951;SDS011;69214;55.880;37.542;2023-10-31T12:43:56;6.07;;;2.40;;
70951;SDS011;69214;55.880;37.542;2023-10-31T12:46:29;6.45;;;2.72;;
70951;SDS011;69214;55.880;37.542;2023-10-31T12:48:56;8.20;;;2.70;;
70951;SDS011;69214;55.880;37.542;2023-10-31T12:51:22;7.07;;;2.75;;
70951;SDS011;69214;55.880;37.542;2023-10-31T12:53:49;6.17;;;2.80;;
70951;SDS011;69214;55.880;37.542;2023-10-31T12:56:37;7.47;;;2.80;;
70951;SDS011;69214;55.880;37.542;2023-10-31T12:59:08;8.73;;;3.15;;
70951;SDS011;69214;55.880;37.542;2023-10-31T13:01:42;9.13;;;2.72;;
70951;SDS011;69214;55.880;37.542;2023-10-31T13:04:08;10.20;;;2.97;;
70951;SDS011;69214;55.880;37.542;2023-10-31T13:06:35;8.10;;;2.93;;
70951;SDS011;69214;55.880;37.542;2023-10-31T13:09:01;7.55;;;2.90;;
70951;SDS011;69214;55.880;37.542;2023-10-31T13:11:29;5.65;;;2.83;;
70951;SDS011;69214;55.880;37.542;2023-10-31T13:13:56;7.90;;;3.20;;
70951;SDS011;69214;55.880;37.542;2023-10-31T13:16:22;8.38;;;3.33;;
70951;SDS011;69214;55.880;37.542;2023-10-31T13:18:48;8.33;;;3.90;;
70951;SDS011;69214;55.880;37.542;2023-10-31T13:21:14;9.82;;;3.65;;
70951;SDS011;69214;55.880;37.542;2023-10-31T13:23:43;7.90;;;3.05;;
70951;SDS011;69214;55.880;37.542;2023-10-31T13:26:13;7.95;;;3.63;;
70951;SDS011;69214;55.880;37.542;2023-10-31T13:28:39;10.53;;;3.50;;
70951;SDS011;69214;55.880;37.542;2023-10-31T13:31:06;8.55;;;3.40;;
70951;SDS011;69214;55.880;37.542;2023-10-31T13:33:32;8.32;;;3.67;;
70951;SDS011;69214;55.880;37.542;2023-10-31T13:35:58;8.15;;;3.30;;
70951;SDS011;69214;55.880;37.542;2023-10-31T13:38:25;7.65;;;3.20;;
70951;SDS011;69214;55.880;37.542;2023-10-31T13:40:50;8.70;;;4.07;;
70951;SDS011;69214;55.880;37.542;2023-10-31T13:43:16;9.30;;;3.85;;
70951;SDS011;69214;55.880;37.542;2023-10-31T13:45:42;11.27;;;3.70;;
70951;SDS011;69214;55.880;37.542;2023-10-31T13:48:07;12.05;;;4.05;;
70951;SDS011;69214;55.880;37.542;2023-10-31T13:50:35;8.90;;;4.05;;
70951;SDS011;69214;55.880;37.542;2023-10-31T13:53:00;11.20;;;4.20;;
70951;SDS011;69214;55.880;37.542;2023-10-31T13:55:28;9.18;;;4.25;;
70951;SDS011;69214;55.880;37.542;2023-10-31T13:57:54;9.30;;;4.15;;
70951;SDS011;69214;55.880;37.542;2023-10-31T14:00:20;11.70;;;4.97;;
70951;SDS011;69214;55.880;37.542;2023-10-31T14:02:45;10.77;;;4.32;;
70951;SDS011;69214;55.880;37.542;2023-10-31T14:05:11;14.03;;;5.30;;
70951;SDS011;69214;55.880;37.542;2023-10-31T14:07:37;10.73;;;5.53;;
70951;SDS011;69214;55.880;37.542;2023-10-31T14:10:03;11.13;;;5.22;;
70951;SDS011;69214;55.880;37.542;2023-10-31T14:12:29;13.20;;;5.45;;
70951;SDS011;69214;55.880;37.542;2023-10-31T14:14:55;13.57;;;5.50;;
70951;SDS011;69214;55.880;37.542;2023-10-31T14:17:20;13.75;;;5.85;;
70951;SDS011;69214;55.880;37.542;2023-10-31T14:19:48;12.57;;;5.40;;
70951;SDS011;69214;55.880;37.542;2023-10-31T14:22:14;13.50;;;5.53;;
70951;SDS011;69214;55.880;37.542;2023-10-31T14:24:40;17.27;;;5.78;;
70951;SDS011;69214;55.880;37.542;2023-10-31T14:27:06;15.48;;;5.38;;
70951;SDS011;69214;55.880;37.542;2023-10-31T14:29:32;14.97;;;5.30;;
70951;SDS011;69214;55.880;37.542;2023-10-31T14:32:05;11.95;;;5.45;;
70951;SDS011;69214;55.880;37.542;2023-10-31T14:34:31;14.60;;;5.78;;
70951;SDS011;69214;55.880;37.542;2023-10-31T14:36:57;12.80;;;5.67;;
70951;SDS011;69214;55.880;37.542;2023-10-31T14:39:23;14.00;;;5.78;;
70951;SDS011;69214;55.880;37.542;2023-10-31T14:41:49;17.60;;;5.47;;
70951;SDS011;69214;55.880;37.542;2023-10-31T14:44:15;13.97;;;6.47;;